Flight Track Log - Related Links

Times and Time Zones

All times are in EDT time to prevent confusion due to time zone crossing. See the EVA772 flight status page for this flight to view local times or setup timezone preferences in your user account.


Time Position Orientation Groundspeed Altitude Reporting Facility
EDT Latitude Longitude Course Direction KTS MPH feet Rate Location/Type
Mon 02:43:00 AM 25.3819 121.5905 358° North  Level Estimated
Mon 02:44:00 AM 25.4761 121.5866 358° North  Level Estimated
Mon 02:45:00 AM 25.5704 121.5827 358° North  Level Estimated
Mon 02:46:00 AM 25.6646 121.5788 358° North  Level Estimated
Mon 02:47:00 AM 25.7497 121.5752 358° North  Level Estimated
Mon 02:48:00 AM 25.8348 121.5717 358° North  Level Estimated
Mon 02:49:00 AM 25.9198 121.5681 358° North  Level Estimated
Mon 02:50:00 AM 26.0049 121.5646 358° North  Level Estimated
Mon 02:51:00 AM 26.0900 121.5610 358° North  Level Estimated
Mon 02:52:00 AM 26.1751 121.5574 358° North  Level Estimated
Mon 02:53:00 AM 26.2602 121.5539 358° North  Level Estimated
Mon 02:54:00 AM 26.3452 121.5503 358° North  Level Estimated
Mon 02:55:00 AM 26.4303 121.5467 358° North  Level Estimated
Mon 02:56:00 AM 26.5154 121.5431 358° North  Level Estimated
Mon 02:57:00 AM 26.6005 121.5395 358° North  Level Estimated
Mon 02:58:00 AM 26.6856 121.5359 358° North  Level Estimated
Mon 02:59:00 AM 26.7706 121.5323 358° North  Level Estimated
Mon 03:00:00 AM 26.8557 121.5287 358° North  Level Estimated
Mon 03:01:00 AM 26.9408 121.5250 358° North  Level Estimated
Mon 03:02:00 AM 27.0259 121.5214 358° North  Level Estimated
Mon 03:03:00 AM 27.1109 121.5178 358° North  Level Estimated
Mon 03:04:00 AM 27.1960 121.5142 358° North  Level Estimated
Mon 03:05:00 AM 27.2811 121.5105 358° North  Level Estimated
Mon 03:06:00 AM 27.3662 121.5069 358° North  Level Estimated
Mon 03:07:00 AM 27.4513 121.5032 358° North  Level Estimated
Mon 03:08:00 AM 27.5363 121.4996 358° North  Level Estimated
Mon 03:09:00 AM 27.6214 121.4959 358° North  Level Estimated
Mon 03:10:00 AM 27.7065 121.4922 358° North  Level Estimated
Mon 03:11:00 AM 27.7916 121.4885 358° North  Level Estimated
Mon 03:12:00 AM 27.8766 121.4849 358° North  Level Estimated
Mon 03:13:00 AM 27.9617 121.4812 358° North  Level Estimated
Mon 03:14:00 AM 28.0468 121.4775 358° North  Level Estimated
Mon 03:15:00 AM 28.1319 121.4738 358° North  Level Estimated
Mon 03:16:00 AM 28.2169 121.4701 358° North  Level Estimated
Mon 03:17:00 AM 28.3020 121.4664 358° North  Level Estimated
Mon 03:18:00 AM 28.3871 121.4627 358° North  Level Estimated
Mon 03:19:00 AM 28.4722 121.4589 358° North  Level Estimated
Mon 03:20:00 AM 28.5573 121.4552 358° North  Level Estimated
Mon 03:21:00 AM 28.6423 121.4515 358° North  Level Estimated
Mon 03:22:00 AM 28.7274 121.4477 358° North  Level Estimated
Mon 03:23:00 AM 28.8125 121.4440 358° North  Level Estimated
Mon 03:24:00 AM 28.8976 121.4402 358° North  Level Estimated
Mon 03:25:00 AM 28.9826 121.4365 358° North  Level Estimated
Mon 03:26:00 AM 29.0677 121.4327 358° North  Level Estimated
Mon 03:27:00 AM 29.1528 121.4289 358° North  Level Estimated
Mon 03:28:00 AM 29.2379 121.4252 358° North  Level Estimated
Mon 03:29:00 AM 29.3229 121.4214 358° North  Level Estimated
Mon 03:30:00 AM 29.4080 121.4176 358° North  Level Estimated
Mon 03:31:00 AM 29.4931 121.4138 358° North  Level Estimated
Mon 03:32:00 AM 29.5782 121.4100 358° North  Level Estimated
Mon 03:33:00 AM 29.6632 121.4062 358° North  Level Estimated
Mon 03:34:00 AM 29.7483 121.4024 358° North  Level Estimated
Mon 03:35:00 AM 29.8334 121.3985 358° North  Level Estimated
Mon 03:36:00 AM 29.9185 121.3947 358° North  Level Estimated
Mon 03:37:00 AM 30.0035 121.3909 358° North  Level Estimated
Mon 03:38:00 AM 30.0886 121.3870 358° North  Level Estimated
Mon 03:39:00 AM 30.1737 121.3832 358° North  Level Estimated
Mon 03:40:00 AM 30.2588 121.3793 358° North  Level Estimated
Mon 03:40:27 AM 29.7174 120.8889 28° Northeast 342 394 20,700  Level FlightAware ADS-B
Mon 03:40:47 AM 29.7426 120.9119 49° Northeast 342 394 20,700  Level FlightAware ADS-B (CYQB)
Mon 03:41:17 AM 29.7677 120.9523 55° Northeast 328 377 20,700 -200 Level FlightAware ADS-B (CYQB)
Mon 03:41:47 AM 29.7918 120.9919 55° Northeast 314 361 20,500 -800 Descending FlightAware ADS-B (CYQB)
Mon 03:42:47 AM 29.8429 121.0773 56° Northeast 306 352 19,500 -1,000 Descending FlightAware ADS-B (CYQB)
Mon 03:43:17 AM 29.8662 121.1175 56° Northeast 302 348 19,000 -1,040 Descending FlightAware ADS-B (CYQB)
Mon 03:44:02 AM 29.9011 121.1777 56° Northeast 298 343 18,200 -1,040 Descending FlightAware ADS-B (CYQB)
Mon 03:44:32 AM 29.9234 121.2161 56° Northeast 293 337 17,700 -930 Descending FlightAware ADS-B (CYQB)
Mon 03:45:13 AM 29.9601 121.2648 21° North 289 333 17,100 -674 Descending FlightAware ADS-B (CYQB)
Mon 03:46:01 AM 30.0240 121.2601 352° North 293 337 16,700 -261 Descending FlightAware ADS-B (CYQB)
Mon 03:46:45 AM 30.0776 121.2516 352° North 294 338 16,700  Level FlightAware ADS-B (CYQB)
Mon 03:47:17 AM 30.1232 121.2440 352° North 294 338 16,700  Level FlightAware ADS-B (CYQB)
Mon 03:47:48 AM 30.1668 121.2367 352° North 293 337 16,700  Level FlightAware ADS-B
Mon 03:48:29 AM 30.2175 121.2281 352° North 293 337 16,700 -254 Level FlightAware ADS-B (CYQB)
Mon 03:48:59 AM 30.2576 121.2221 North 293 337 16,400 -811 Descending FlightAware ADS-B (CYQB)
Mon 03:49:43 AM 30.3190 121.2295 North 288 331 15,700 -933 Descending FlightAware ADS-B (CYQB)
Mon 03:50:29 AM 30.3806 121.2376 North 286 329 15,000 -977 Descending FlightAware ADS-B (CYQB)
Mon 03:51:09 AM 30.4336 121.2446 North 285 328 14,300 -1,050 Descending FlightAware ADS-B
Mon 03:51:49 AM 30.4869 121.2518 North 280 322 13,600 -975 Descending FlightAware ADS-B
Mon 03:52:29 AM 30.5380 121.2596 North 282 325 13,000 -930 Descending FlightAware ADS-B
Mon 03:53:00 AM 30.5783 121.2654 North 280 322 12,500 -984 Descending FlightAware ADS-B (CYQB)
Mon 03:53:30 AM 30.6178 121.2708 North 278 320 12,000 -1,075 Descending FlightAware ADS-B
Mon 03:54:07 AM 30.6641 121.2771 North 278 320 11,300 -1,040 Descending FlightAware ADS-B
Mon 03:54:45 AM 30.7108 121.2836 North 275 316 10,700 -940 Descending FlightAware ADS-B (CYQB)
Mon 03:55:30 AM 30.7664 121.2914 North 272 313 10,000 -762 Descending FlightAware ADS-B (CYQB)
Mon 03:55:48 AM 30.7933 121.2952 North 270 311 9,900 -462 Descending FlightAware ADS-B
Mon 03:56:09 AM 30.8201 121.2990 North 269 310 9,700 -571 Descending FlightAware ADS-B
Mon 03:56:30 AM 30.8415 121.3020 North 267 307 9,500 -471 Descending FlightAware ADS-B (CYQB)
Mon 03:57:00 AM 30.8799 121.3074 North 268 308 9,300 -400 Descending FlightAware ADS-B (CYQB)
Mon 03:57:15 AM 30.8999 121.3102 North 268 308 9,200 -667 Descending FlightAware ADS-B (CYQB)
Mon 03:57:45 AM 30.9364 121.3154 North 268 308 8,800 -783 Descending FlightAware ADS-B (CYQB)
Mon 03:58:01 AM 30.9555 121.3181 North 268 308 8,600 -968 Descending FlightAware ADS-B (CYQB)
Mon 03:58:16 AM 30.9749 121.3207 North 267 307 8,300 -698 Descending FlightAware ADS-B (CYQB)
Mon 03:58:44 AM 31.0096 121.3256 North 263 303 8,100 -279 Descending FlightAware ADS-B (CYQB)
Mon 03:58:59 AM 31.0258 121.3279 North 257 296 8,100  Level FlightAware ADS-B (CYQB)
Mon 03:59:15 AM 31.0428 121.3303 North 256 295 8,100  Level FlightAware ADS-B (CYQB)
Mon 03:59:38 AM 31.0742 121.3347 North 254 292 8,100  Level FlightAware ADS-B (SHA / ZSSS)
Mon 03:59:55 AM 31.0941 121.3376 North 254 292 8,100  Level FlightAware ADS-B (SHA / ZSSS)
Mon 03:59:57 AM 31.0428 121.3303 North 255 293 8,100  Level FlightAware ADS-B (CYQB)
Mon 04:00:12 AM 31.1146 121.3393 359° North 254 292 8,100 -333 Level FlightAware ADS-B (SHA / ZSSS)
Mon 04:00:15 AM 31.1165 121.3390 North 254 292 8,000 -1,200 Descending FlightAware ADS-B (CYQB)
Mon 04:00:17 AM 31.1207 121.3381 349° North 255 293 8,000 -750 Level FlightAware ADS-B (SHA / ZSSS)
Mon 04:00:23 AM 31.1270 121.3355 342° North 256 295 7,900 -1,200 Descending FlightAware ADS-B (SHA / ZSSS)
Mon 04:00:27 AM 31.1307 121.3337 337° Northwest 256 295 7,800 -857 Descending FlightAware ADS-B (SHA / ZSSS)
Mon 04:00:30 AM 31.1334 121.3324 335° Northwest 256 295 7,800 -1,200 Level FlightAware ADS-B (CYQB)
Mon 04:00:42 AM 31.1480 121.3239 334° Northwest 257 296 7,500 -1,125 Descending FlightAware ADS-B (SHA / ZSSS)
Mon 04:00:46 AM 31.1504 121.3226 334° Northwest 258 297 7,500 -1,125 Level FlightAware ADS-B (CYQB)
Mon 04:00:58 AM 31.1642 121.3148 334° Northwest 258 297 7,200 -1,286 Descending FlightAware ADS-B (SHA / ZSSS)
Mon 04:01:00 AM 31.1647 121.3144 334° Northwest 259 298 7,200 -923 Level FlightAware ADS-B (CYQB)
Mon 04:01:11 AM 31.1794 121.3060 334° Northwest 257 296 7,000 -750 Descending FlightAware ADS-B (SHA / ZSSS)
Mon 04:01:16 AM 31.1815 121.3048 334° Northwest 257 296 7,000 -1,125 Level FlightAware ADS-B (CYQB)
Mon 04:01:27 AM 31.1958 121.2968 335° Northwest 255 293 6,700 -1,154 Descending FlightAware ADS-B (SHA / ZSSS)
Mon 04:01:42 AM 31.2111 121.2880 335° Northwest 253 291 6,500 -800 Descending FlightAware ADS-B (SHA / ZSSS)
Mon 04:01:57 AM 31.2277 121.2786 335° Northwest 251 289 6,300 -706 Descending FlightAware ADS-B (SHA / ZSSS)
Mon 04:01:59 AM 31.2286 121.2781 334° Northwest 252 290 6,300 -857 Level FlightAware ADS-B (CYQB)
Mon 04:02:11 AM 31.2423 121.2704 334° Northwest 250 288 6,100 -1,125 Descending FlightAware ADS-B (SHA / ZSSS)
Mon 04:02:15 AM 31.2286 121.2781 334° Northwest 250 288 6,000 -1,500 Descending FlightAware ADS-B (CYQB)
Mon 04:02:27 AM 31.2581 121.2614 335° Northwest 247 284 5,700 -1,556 Descending FlightAware ADS-B (SHA / ZSSS)
Mon 04:02:42 AM 31.2744 121.2522 334° Northwest 247 284 5,300 -1,600 Descending FlightAware ADS-B (SHA / ZSSS)
Mon 04:02:57 AM 31.2891 121.2439 335° Northwest 247 284 4,900 -1,355 Descending FlightAware ADS-B (SHA / ZSSS)
Mon 04:03:13 AM 31.3018 121.2368 335° Northwest 245 282 4,600 -1,448 Descending FlightAware ADS-B (SHA / ZSSS)
Mon 04:03:26 AM 31.3192 121.2277 339° North 244 281 4,200 -1,667 Descending FlightAware ADS-B (SHA / ZSSS)
Mon 04:03:31 AM 31.3261 121.2258 350° North 246 283 4,100 -1,200 Descending FlightAware ADS-B (SHA / ZSSS)
Mon 04:03:36 AM 31.3315 121.2257 359° North 248 285 4,000 -1,091 Descending FlightAware ADS-B (SHA / ZSSS)
Mon 04:03:42 AM 31.3357 121.2264 North 248 285 3,900 -1,778 Descending FlightAware ADS-B (SHA / ZSSS)
Mon 04:04:03 AM 31.3563 121.2423 52° Northeast 243 280 3,200 -1,680 Descending FlightAware ADS-B
Mon 04:04:07 AM 31.3580 121.2458 58° Northeast 241 277 3,200 -1,500 Level FlightAware ADS-B
Mon 04:04:11 AM 31.3601 121.2513 68° East 238 274 3,000 -1,714 Descending FlightAware ADS-B (SHA / ZSSS)
Mon 04:04:14 AM 31.3611 121.2555 68° East 238 274 3,000 -741 Level FlightAware ADS-B (SHA / ZSSS)
Mon 04:05:32 AM 31.3303 121.3279 150° Southeast 183 211 2,000 -723 Descending FlightAware ADS-B (SHA / ZSSS)
Mon 04:05:37 AM 31.3268 121.3294 160° South 179 206 2,000  Level FlightAware ADS-B (SHA / ZSSS)
Mon 04:05:40 AM 31.3246 121.3298 169° South 177 204 2,000  Level FlightAware ADS-B (SHA / ZSSS)
Mon 04:05:57 AM 31.3115 121.3303 178° South 168 193 2,000 -364 Level FlightAware ADS-B (SHA / ZSSS)
Mon 04:06:13 AM 31.2985 121.3308 177° South 169 194 1,800 -828 Descending FlightAware ADS-B (SHA / ZSSS)
Mon 04:06:26 AM 31.2887 121.3314 177° South 159 183 1,600 -947 Descending FlightAware ADS-B (SHA / ZSSS)
Mon 04:06:32 AM 31.2850 121.3316 179° South 171 197 1,500 -900 Descending FlightAware ADS-B
Mon 04:06:46 AM 31.2743 121.3321 176° South 145 167 1,300 -774 Descending FlightAware ADS-B (SHA / ZSSS)
Mon 04:07:03 AM 31.2647 121.3327 177° South 136 157 1,100 -581 Descending FlightAware ADS-B
Mon 04:07:17 AM 31.2561 121.3331 177° South 137 158 1,000 -621 Descending FlightAware ADS-B (SHA / ZSSS)
Mon 04:07:32 AM 31.2448 121.3337 177° South 134 154 800 -600 Descending FlightAware ADS-B (SHA / ZSSS)
Mon 04:07:47 AM 31.2361 121.3342 177° South 133 153 700 -585 Descending FlightAware ADS-B (SHA / ZSSS)
Mon 04:08:13 AM 31.2195 121.3351 177° South 134 154 400 -692 Descending FlightAware ADS-B (SHA / ZSSS)

Login

Don't have an account? Register now (free) for customized features, flight alerts, and more!